createdAt,value
2022-07-29T00:01:37.940Z,99748.03
2022-07-29T00:04:24.420Z,99740.75
2022-07-29T00:07:10.871Z,99740.00
2022-07-29T00:09:59.406Z,99735.66
2022-07-29T00:12:45.637Z,99736.06
2022-07-29T00:15:33.445Z,99752.81
2022-07-29T00:18:19.617Z,99739.25
2022-07-29T00:21:06.002Z,99740.06
2022-07-29T00:23:52.361Z,99744.84
2022-07-29T00:26:38.578Z,99744.41
2022-07-29T00:29:34.196Z,99743.66
2022-07-29T00:32:21.283Z,99742.47
2022-07-29T00:35:26.706Z,99745.66
2022-07-29T00:38:15.081Z,99746.44
2022-07-29T00:41:01.050Z,99752.03
2022-07-29T00:43:47.427Z,99742.87
2022-07-29T00:46:33.765Z,99738.47
2022-07-29T00:49:20.221Z,99740.84
2022-07-29T00:52:07.136Z,99736.84
2022-07-29T00:54:53.627Z,99736.47
2022-07-29T00:57:41.432Z,99731.66
2022-07-29T01:00:29.287Z,99740.44
2022-07-29T01:03:15.703Z,99741.66
2022-07-29T01:06:02.347Z,99734.44
2022-07-29T01:08:49.309Z,99737.25
2022-07-29T01:11:37.108Z,99732.03
2022-07-29T01:14:24.172Z,99734.44
2022-07-29T01:17:26.705Z,99730.81
2022-07-29T01:20:33.779Z,99728.84
2022-07-29T01:23:29.467Z,99726.87
2022-07-29T01:26:49.215Z,99734.47
2022-07-29T01:29:42.890Z,99732.88
2022-07-29T01:32:37.645Z,99732.84
2022-07-29T01:35:27.020Z,99732.88
2022-07-29T01:38:25.979Z,99730.03
2022-07-29T01:41:16.548Z,99730.44
2022-07-29T01:44:21.623Z,99727.25
2022-07-29T01:47:13.907Z,99728.03
2022-07-29T01:50:01.439Z,99724.44
2022-07-29T01:53:00.434Z,99721.25
2022-07-29T01:55:47.163Z,99716.03
2022-07-29T01:58:33.637Z,99717.66
2022-07-29T02:01:21.374Z,99720.81
2022-07-29T02:04:10.811Z,99722.47
2022-07-29T02:07:00.218Z,99724.44
2022-07-29T02:09:48.450Z,99722.84
2022-07-29T02:12:36.659Z,99723.25
2022-07-29T02:15:25.114Z,99728.06
2022-07-29T02:18:18.923Z,99720.84
2022-07-29T02:21:06.149Z,99720.03
2022-07-29T02:24:02.678Z,99711.25
2022-07-29T02:26:50.818Z,99714.06
2022-07-29T02:29:38.419Z,99708.84
2022-07-29T02:32:25.800Z,99718.87
2022-07-29T02:35:14.395Z,99711.28
2022-07-29T02:38:19.489Z,99708.06
2022-07-29T02:41:12.324Z,99705.69
2022-07-29T02:44:03.939Z,99709.66
2022-07-29T02:47:00.503Z,99709.28
2022-07-29T02:49:54.464Z,99701.66
2022-07-29T02:52:44.670Z,99704.84
2022-07-29T02:55:58.087Z,99710.87
2022-07-29T02:58:49.090Z,99710.06
2022-07-29T03:01:36.150Z,99700.06
2022-07-29T03:04:24.051Z,99705.66
2022-07-29T03:07:12.260Z,99706.88
2022-07-29T03:09:58.657Z,99700.88
2022-07-29T03:12:45.421Z,99710.06
2022-07-29T03:15:32.059Z,99712.88
2022-07-29T03:18:18.663Z,99707.69
2022-07-29T03:21:05.106Z,99709.69
2022-07-29T03:23:52.055Z,99708.88
2022-07-29T03:26:38.323Z,99711.25
2022-07-29T03:29:25.238Z,99704.88
2022-07-29T03:32:23.741Z,99711.69
2022-07-29T03:35:11.905Z,99711.28
2022-07-29T03:37:57.929Z,99719.28
2022-07-29T03:40:49.961Z,99715.69
2022-07-29T03:43:39.079Z,99715.28
2022-07-29T03:46:37.037Z,99711.66
2022-07-29T03:49:24.912Z,99721.66
2022-07-29T03:52:11.907Z,99720.06
2022-07-29T03:54:57.946Z,99706.88
2022-07-29T03:57:45.871Z,99712.47
2022-07-29T04:00:32.994Z,99718.47
2022-07-29T04:03:19.250Z,99710.47
2022-07-29T04:06:07.478Z,99725.66
2022-07-29T04:08:54.207Z,99718.87
2022-07-29T04:12:02.587Z,99721.28
2022-07-29T04:14:48.222Z,99725.69
2022-07-29T04:17:34.879Z,99729.66
2022-07-29T04:20:21.655Z,99732.06
2022-07-29T04:23:07.994Z,99722.06
2022-07-29T04:25:54.871Z,99721.28
2022-07-29T04:28:41.460Z,99722.47
2022-07-29T04:31:28.725Z,99720.47
2022-07-29T04:34:14.825Z,99724.06
2022-07-29T04:37:01.730Z,99728.47
2022-07-29T04:39:48.076Z,99726.06
2022-07-29T04:42:34.308Z,99725.66
2022-07-29T04:45:30.223Z,99724.88
2022-07-29T04:48:16.657Z,99731.25
2022-07-29T04:51:03.127Z,99725.66
2022-07-29T04:53:49.312Z,99732.47
2022-07-29T04:56:35.781Z,99726.84
2022-07-29T04:59:22.143Z,99722.06
2022-07-29T05:02:08.410Z,99721.63
2022-07-29T05:04:54.732Z,99722.41
2022-07-29T05:07:41.467Z,99724.84
2022-07-29T05:10:28.171Z,99728.84
2022-07-29T05:13:14.494Z,99740.38
2022-07-29T05:16:00.894Z,99737.59
2022-07-29T05:18:47.272Z,99726.31
2022-07-29T05:21:33.669Z,99723.44
2022-07-29T05:24:20.158Z,99730.59
2022-07-29T05:27:06.598Z,99733.94
2022-07-29T05:29:53.213Z,99729.59
2022-07-29T05:32:39.373Z,99723.84
2022-07-29T05:35:25.713Z,99729.84
2022-07-29T05:38:12.179Z,99722.09
2022-07-29T05:41:00.136Z,99732.25
2022-07-29T05:43:46.467Z,99724.06
2022-07-29T05:46:32.974Z,99739.03
2022-07-29T05:49:27.126Z,99732.81
2022-07-29T05:52:14.290Z,99732.56
2022-07-29T05:55:03.775Z,99742.72
2022-07-29T05:57:49.853Z,99739.59
2022-07-29T06:00:36.381Z,99737.06
2022-07-29T06:03:22.510Z,99744.44
2022-07-29T06:06:08.662Z,99749.59
2022-07-29T06:08:55.270Z,99748.63
2022-07-29T06:11:41.748Z,99745.22
2022-07-29T06:14:29.273Z,99747.97
2022-07-29T06:17:17.366Z,99745.53
2022-07-29T06:20:04.788Z,99743.25
2022-07-29T06:22:50.987Z,99750.03
2022-07-29T06:25:37.736Z,99756.09
2022-07-29T06:28:24.084Z,99749.87
2022-07-29T06:31:10.750Z,99752.56
2022-07-29T06:33:57.106Z,99750.88
2022-07-29T06:36:43.495Z,99748.59
2022-07-29T06:39:29.731Z,99751.13
2022-07-29T06:42:16.634Z,99757.03
2022-07-29T06:45:06.208Z,99773.31
2022-07-29T06:47:55.872Z,99767.69
2022-07-29T06:50:42.150Z,99765.09
2022-07-29T06:53:28.721Z,99766.53
2022-07-29T06:56:14.976Z,99763.09
2022-07-29T06:59:01.513Z,99764.13
2022-07-29T07:01:47.918Z,99761.50
2022-07-29T07:04:34.476Z,99762.25
2022-07-29T07:07:20.392Z,99764.34
2022-07-29T07:10:07.712Z,99761.56
2022-07-29T07:12:53.614Z,99763.59
2022-07-29T07:15:40.310Z,99755.88
2022-07-29T07:18:26.556Z,99761.72
2022-07-29T07:21:19.155Z,99763.47
2022-07-29T07:24:05.951Z,99763.88
2022-07-29T07:26:52.364Z,99756.44
2022-07-29T07:29:42.509Z,99760.41
2022-07-29T07:32:30.852Z,99757.28
2022-07-29T07:35:17.269Z,99759.31
2022-07-29T07:38:03.831Z,99755.53
2022-07-29T07:40:49.864Z,99752.34
2022-07-29T07:43:36.119Z,99751.91
2022-07-29T07:46:22.544Z,99755.81
2022-07-29T07:49:09.044Z,99754.47
2022-07-29T07:51:55.177Z,99754.47
2022-07-29T07:54:41.473Z,99749.91
2022-07-29T07:57:28.026Z,99751.22
2022-07-29T08:00:16.368Z,99751.94
2022-07-29T08:03:06.232Z,99747.44
2022-07-29T08:06:04.804Z,99740.28
2022-07-29T08:08:51.974Z,99756.41
2022-07-29T08:11:37.863Z,99739.69
2022-07-29T08:14:38.869Z,99739.31
2022-07-29T08:17:25.166Z,99745.69
2022-07-29T08:20:11.862Z,99749.69
2022-07-29T08:22:57.827Z,99741.87
2022-07-29T08:25:43.988Z,99746.88
2022-07-29T08:28:29.981Z,99742.19
2022-07-29T08:31:16.611Z,99741.87
2022-07-29T08:34:03.586Z,99743.03
2022-07-29T08:36:50.388Z,99725.88
2022-07-29T08:39:37.737Z,99741.50
2022-07-29T08:42:23.892Z,99736.22
2022-07-29T08:45:10.031Z,99744.53
2022-07-29T08:47:56.501Z,99738.03
2022-07-29T08:50:46.299Z,99733.81
2022-07-29T08:53:33.112Z,99730.62
2022-07-29T08:56:20.330Z,99731.78
2022-07-29T08:59:07.022Z,99736.00
2022-07-29T09:01:55.571Z,99722.12
2022-07-29T09:04:42.526Z,99723.78
2022-07-29T09:07:34.853Z,99729.19
2022-07-29T09:10:21.135Z,99728.31
2022-07-29T09:13:07.489Z,99720.06
2022-07-29T09:15:53.916Z,99723.03
2022-07-29T09:18:43.822Z,99728.09
2022-07-29T09:21:59.847Z,99716.16
2022-07-29T09:24:48.264Z,99712.03
2022-07-29T09:27:35.317Z,99712.75
2022-07-29T09:30:25.583Z,99711.16
2022-07-29T09:33:18.658Z,99706.91
2022-07-29T09:36:09.384Z,99704.16
2022-07-29T09:39:04.618Z,99705.88
2022-07-29T09:41:55.746Z,99696.44
2022-07-29T09:44:51.659Z,99698.09
2022-07-29T09:47:50.107Z,99696.84
2022-07-29T09:50:37.549Z,99698.66
2022-07-29T09:53:34.206Z,99703.37
2022-07-29T09:56:20.597Z,99687.53
2022-07-29T09:59:07.607Z,99678.31
2022-07-29T10:01:54.493Z,99690.59
2022-07-29T10:04:42.235Z,99685.50
2022-07-29T10:07:44.471Z,99683.91
2022-07-29T10:10:34.766Z,99683.44
2022-07-29T10:13:20.812Z,99678.19
2022-07-29T10:16:07.667Z,99677.09
2022-07-29T10:18:53.757Z,99680.37
2022-07-29T10:21:44.199Z,99674.28
2022-07-29T10:24:31.737Z,99674.31
2022-07-29T10:27:18.411Z,99663.44
2022-07-29T10:30:05.658Z,99669.03
2022-07-29T10:32:56.411Z,99662.81
2022-07-29T10:35:48.655Z,99655.12
2022-07-29T10:38:41.080Z,99658.00
2022-07-29T10:41:50.380Z,99657.59
2022-07-29T10:44:41.792Z,99654.03
2022-07-29T10:47:28.391Z,99641.72
2022-07-29T10:50:17.198Z,99645.75
2022-07-29T10:53:04.935Z,99637.78
2022-07-29T10:55:55.819Z,99638.47
2022-07-29T10:58:42.556Z,99637.06
2022-07-29T11:01:39.090Z,99640.69
2022-07-29T11:04:44.394Z,99640.31
2022-07-29T11:07:45.771Z,99638.56
2022-07-29T11:10:32.611Z,99640.47
2022-07-29T11:13:44.148Z,99635.06
2022-07-29T11:17:00.755Z,99624.09
2022-07-29T11:19:52.089Z,99614.19
2022-07-29T11:22:43.154Z,99619.09
2022-07-29T11:25:50.811Z,99624.66
2022-07-29T11:28:43.588Z,99614.25
2022-07-29T11:31:51.638Z,99611.56
2022-07-29T11:34:41.637Z,99605.16
2022-07-29T11:37:29.345Z,99600.53
2022-07-29T11:40:18.502Z,99602.28
2022-07-29T11:43:07.417Z,99590.37
2022-07-29T11:45:54.550Z,99585.78
2022-07-29T11:48:44.424Z,99598.13
2022-07-29T11:51:32.999Z,99579.75
2022-07-29T11:54:27.731Z,99581.72
2022-07-29T11:57:14.070Z,99586.19
2022-07-29T12:00:04.905Z,99593.81
2022-07-29T12:02:57.845Z,99587.31
2022-07-29T12:08:53.328Z,99579.19
2022-07-29T12:11:39.911Z,99581.31
2022-07-29T12:14:29.462Z,99584.66
2022-07-29T12:17:32.823Z,99582.25
2022-07-29T12:20:28.030Z,99575.91
2022-07-29T12:23:17.363Z,99578.44
2022-07-29T12:26:07.659Z,99572.19
2022-07-29T12:28:56.811Z,99555.06
2022-07-29T12:31:45.577Z,99547.28
2022-07-29T12:34:31.928Z,99557.59
2022-07-29T12:37:18.520Z,99553.63
2022-07-29T12:40:08.463Z,99537.06
2022-07-29T12:43:13.355Z,99535.94
2022-07-29T12:46:13.652Z,99538.13
2022-07-29T12:48:59.972Z,99532.88
2022-07-29T12:51:45.924Z,99535.63
2022-07-29T12:54:32.159Z,99532.84
2022-07-29T12:57:19.980Z,99524.00
2022-07-29T13:00:12.050Z,99523.78
2022-07-29T13:03:00.428Z,99531.06
2022-07-29T13:05:49.416Z,99520.50
2022-07-29T13:08:35.942Z,99518.22
2022-07-29T13:11:30.314Z,99526.63
2022-07-29T13:14:34.128Z,99513.25
2022-07-29T13:17:23.993Z,99517.72
2022-07-29T13:20:13.675Z,99509.41
2022-07-29T13:23:01.415Z,99501.97
2022-07-29T13:25:47.392Z,99502.16
2022-07-29T13:28:33.846Z,99495.06
2022-07-29T13:31:20.415Z,99492.78
2022-07-29T13:34:07.053Z,99485.88
2022-07-29T13:36:53.526Z,99495.12
2022-07-29T13:39:40.805Z,99490.75
2022-07-29T13:42:27.302Z,99482.37
2022-07-29T13:45:13.715Z,99486.59
2022-07-29T13:48:00.127Z,99483.59
2022-07-29T13:50:47.598Z,99479.69
2022-07-29T13:53:33.782Z,99474.38
2022-07-29T13:56:20.745Z,99472.19
2022-07-29T13:59:06.430Z,99468.19
2022-07-29T14:01:52.969Z,99467.53
2022-07-29T14:04:39.835Z,99466.63
2022-07-29T14:07:25.816Z,99468.44
2022-07-29T14:10:12.669Z,99471.44
2022-07-29T14:12:59.697Z,99463.16
2022-07-29T14:15:45.993Z,99461.81
2022-07-29T14:18:32.306Z,99458.56
2022-07-29T14:21:18.710Z,99458.47
2022-07-29T14:24:16.292Z,99459.44
2022-07-29T14:27:08.963Z,99447.91
2022-07-29T14:29:55.523Z,99447.41
2022-07-29T14:32:41.898Z,99450.75
2022-07-29T14:35:28.179Z,99445.63
2022-07-29T14:38:14.546Z,99448.91
2022-07-29T14:41:01.142Z,99440.50
2022-07-29T14:43:48.264Z,99446.66
2022-07-29T14:46:34.937Z,99431.97
2022-07-29T14:49:21.116Z,99429.91
2022-07-29T14:52:07.653Z,99434.59
2022-07-29T14:54:53.902Z,99426.16
2022-07-29T14:57:40.204Z,99429.44
2022-07-29T15:00:26.940Z,99420.34
2022-07-29T15:03:13.199Z,99419.41
2022-07-29T15:06:10.705Z,99412.03
2022-07-29T15:08:57.127Z,99399.53
2022-07-29T15:11:43.882Z,99401.44
2022-07-29T15:14:30.159Z,99398.72
2022-07-29T15:17:16.497Z,99387.62
2022-07-29T15:20:03.116Z,99398.78
2022-07-29T15:22:49.685Z,99403.94
2022-07-29T15:25:37.315Z,99399.47
2022-07-29T15:28:23.915Z,99389.88
2022-07-29T15:31:10.256Z,99390.56
2022-07-29T15:33:59.417Z,99393.09
2022-07-29T15:36:52.603Z,99384.09
2022-07-29T15:39:39.711Z,99393.06
2022-07-29T15:42:26.094Z,99391.00
2022-07-29T15:45:12.564Z,99391.25
2022-07-29T15:47:58.764Z,99383.16
2022-07-29T15:50:47.178Z,99377.72
2022-07-29T15:53:35.188Z,99382.28
2022-07-29T15:56:21.845Z,99375.16
2022-07-29T15:59:08.137Z,99374.25
2022-07-29T16:01:54.826Z,99364.78
2022-07-29T16:04:41.654Z,99362.72
2022-07-29T16:07:31.263Z,99384.00
2022-07-29T16:10:19.195Z,99374.81
2022-07-29T16:13:04.935Z,99373.75
2022-07-29T16:16:02.442Z,99375.91
2022-07-29T16:18:49.173Z,99378.38
2022-07-29T16:21:35.972Z,99369.41
2022-07-29T16:24:22.208Z,99366.47
2022-07-29T16:27:08.688Z,99372.53
2022-07-29T16:29:55.705Z,99366.72
2022-07-29T16:32:42.228Z,99368.66
2022-07-29T16:35:39.584Z,99364.84
2022-07-29T16:38:26.897Z,99365.09
2022-07-29T16:41:13.667Z,99361.06
2022-07-29T16:44:00.363Z,99361.16
2022-07-29T16:46:46.536Z,99366.16
2022-07-29T16:49:34.955Z,99354.53
2022-07-29T16:52:21.230Z,99356.69
2022-07-29T16:55:21.649Z,99364.75
2022-07-29T16:58:07.732Z,99360.59
2022-07-29T17:00:55.188Z,99369.88
2022-07-29T17:04:01.297Z,99364.00
2022-07-29T17:06:49.603Z,99358.78
2022-07-29T17:09:35.730Z,99353.69
2022-07-29T17:12:22.046Z,99364.44
2022-07-29T17:15:10.612Z,99364.88
2022-07-29T17:17:57.336Z,99360.91
2022-07-29T17:20:43.507Z,99364.62
2022-07-29T17:23:29.839Z,99362.69
2022-07-29T17:26:16.707Z,99367.00
2022-07-29T17:29:03.235Z,99364.06
2022-07-29T17:31:49.042Z,99364.19
2022-07-29T17:34:39.581Z,99354.00
2022-07-29T17:37:25.772Z,99363.22
2022-07-29T17:40:12.211Z,99362.63
2022-07-29T17:49:18.569Z,99360.25
2022-07-29T17:52:05.373Z,99368.94
2022-07-29T17:54:51.765Z,99371.72
2022-07-29T17:57:38.149Z,99371.47
2022-07-29T18:00:24.954Z,99367.53
2022-07-29T18:03:11.567Z,99376.03
2022-07-29T18:05:57.865Z,99376.56
2022-07-29T18:08:47.907Z,99379.28
2022-07-29T18:11:34.251Z,99383.41
2022-07-29T18:14:20.583Z,99380.59
2022-07-29T18:17:06.910Z,99381.03
2022-07-29T18:19:53.244Z,99379.62
2022-07-29T18:22:39.652Z,99383.25
2022-07-29T18:25:26.642Z,99387.03
2022-07-29T18:28:12.721Z,99388.69
2022-07-29T18:31:00.143Z,99393.13
2022-07-29T18:33:46.405Z,99398.34
2022-07-29T18:36:32.857Z,99395.72
2022-07-29T18:39:21.150Z,99400.88
2022-07-29T18:42:07.860Z,99399.81
2022-07-29T18:44:54.855Z,99403.59
2022-07-29T18:47:41.521Z,99404.28
2022-07-29T18:50:33.454Z,99403.34
2022-07-29T18:53:19.715Z,99400.41
2022-07-29T18:56:06.149Z,99403.94
2022-07-29T18:58:52.486Z,99400.06
2022-07-29T19:01:38.927Z,99400.84
2022-07-29T19:04:26.171Z,99407.31
2022-07-29T19:07:12.181Z,99401.75
2022-07-29T19:09:58.458Z,99417.25
2022-07-29T19:12:44.551Z,99418.06
2022-07-29T19:15:30.899Z,99423.25
2022-07-29T19:18:18.163Z,99429.75
2022-07-29T19:21:04.624Z,99420.34
2022-07-29T19:24:01.790Z,99417.03
2022-07-29T19:26:54.412Z,99416.63
2022-07-29T19:29:40.778Z,99423.00
2022-07-29T19:32:27.192Z,99425.06
2022-07-29T19:35:28.290Z,99430.37
2022-07-29T19:38:15.232Z,99423.59
2022-07-29T19:41:01.492Z,99432.28
2022-07-29T19:43:50.887Z,99427.06
2022-07-29T19:46:38.708Z,99419.31
2022-07-29T19:49:25.176Z,99418.06
2022-07-29T19:52:11.245Z,99421.53
2022-07-29T19:54:58.881Z,99412.41
2022-07-29T19:57:46.295Z,99413.03
2022-07-29T20:00:32.857Z,99413.09
2022-07-29T20:03:19.155Z,99416.09
2022-07-29T20:06:06.012Z,99412.91
2022-07-29T20:08:56.774Z,99412.56
2022-07-29T20:11:44.769Z,99409.72
2022-07-29T20:14:31.259Z,99408.84
2022-07-29T20:17:22.462Z,99414.50
2022-07-29T20:20:09.020Z,99412.00
2022-07-29T20:22:55.408Z,99417.75
2022-07-29T20:25:42.217Z,99415.91
2022-07-29T20:28:29.189Z,99412.41
2022-07-29T20:31:16.737Z,99420.44
2022-07-29T20:34:03.498Z,99422.50
2022-07-29T20:36:50.698Z,99418.12
2022-07-29T20:39:37.444Z,99431.00
2022-07-29T20:42:24.038Z,99436.69
2022-07-29T20:45:10.514Z,99433.06
2022-07-29T20:47:57.153Z,99442.50
2022-07-29T20:50:44.980Z,99444.41
2022-07-29T20:53:31.458Z,99445.22
2022-07-29T20:56:17.738Z,99452.59
2022-07-29T20:59:04.473Z,99446.81
2022-07-29T21:01:50.645Z,99453.38
2022-07-29T21:04:37.198Z,99455.34
2022-07-29T21:07:23.333Z,99453.22
2022-07-29T21:10:09.831Z,99452.97
2022-07-29T21:12:56.184Z,99456.03
2022-07-29T21:15:45.955Z,99458.44
2022-07-29T21:18:34.338Z,99464.06
2022-07-29T21:21:20.959Z,99460.87
2022-07-29T21:24:08.129Z,99455.50
2022-07-29T21:27:21.497Z,99466.53
2022-07-29T21:30:08.850Z,99470.38
2022-07-29T21:32:55.564Z,99476.88
2022-07-29T21:36:06.885Z,99477.34
2022-07-29T21:38:48.830Z,99478.97
2022-07-29T21:41:34.764Z,99486.53
2022-07-29T21:44:21.898Z,99486.75
2022-07-29T21:47:09.297Z,99479.03
2022-07-29T21:49:55.781Z,99487.78
2022-07-29T21:52:42.080Z,99484.22
2022-07-29T21:55:28.976Z,99480.00
2022-07-29T21:58:18.106Z,99482.78
2022-07-29T22:01:04.878Z,99481.56
2022-07-29T22:03:51.518Z,99491.31
2022-07-29T22:06:37.732Z,99491.88
2022-07-29T22:09:24.686Z,99499.38
2022-07-29T22:12:11.141Z,99491.69
2022-07-29T22:14:57.939Z,99505.19
2022-07-29T22:17:43.934Z,99504.13
2022-07-29T22:20:30.256Z,99497.87
2022-07-29T22:23:16.799Z,99498.37
2022-07-29T22:26:03.940Z,99498.03
2022-07-29T22:28:49.969Z,99498.72
2022-07-29T22:31:36.278Z,99496.66
2022-07-29T22:34:22.675Z,99497.22
2022-07-29T22:37:09.029Z,99497.81
2022-07-29T22:39:55.271Z,99496.72
2022-07-29T22:42:41.550Z,99487.38
2022-07-29T22:45:28.065Z,99491.34
2022-07-29T22:48:16.858Z,99489.38
2022-07-29T22:51:03.187Z,99486.69
2022-07-29T22:53:49.641Z,99483.34
2022-07-29T22:56:36.777Z,99489.13
2022-07-29T22:59:23.478Z,99490.37
2022-07-29T23:02:09.605Z,99484.41
2022-07-29T23:04:55.819Z,99493.44
2022-07-29T23:07:42.096Z,99476.28
2022-07-29T23:10:28.633Z,99482.97
2022-07-29T23:13:14.940Z,99472.75
2022-07-29T23:16:01.672Z,99475.75
2022-07-29T23:18:48.245Z,99472.19
2022-07-29T23:21:34.613Z,99470.47
2022-07-29T23:24:21.084Z,99465.72
2022-07-29T23:27:07.430Z,99468.00
2022-07-29T23:29:53.817Z,99466.50
2022-07-29T23:32:40.158Z,99455.44
2022-07-29T23:35:26.962Z,99453.03
2022-07-29T23:38:13.622Z,99455.72
2022-07-29T23:41:01.663Z,99453.25
2022-07-29T23:43:50.994Z,99451.69
2022-07-29T23:46:37.397Z,99445.31
2022-07-29T23:49:23.619Z,99441.19
2022-07-29T23:52:09.957Z,99441.84
2022-07-29T23:54:56.320Z,99434.56
2022-07-29T23:58:03.075Z,99424.66
